createdAt,value
2022-08-19T00:00:29.021Z,96488.31
2022-08-19T00:01:31.641Z,96494.31
2022-08-19T00:02:33.385Z,96495.63
2022-08-19T00:03:35.514Z,96494.25
2022-08-19T00:04:37.797Z,96496.69
2022-08-19T00:05:39.645Z,96497.97
2022-08-19T00:06:43.880Z,96502.47
2022-08-19T00:07:45.968Z,96507.03
2022-08-19T00:08:47.538Z,96507.72
2022-08-19T00:09:49.108Z,96509.63
2022-08-19T00:10:50.705Z,96512.44
2022-08-19T00:11:53.230Z,96507.03
2022-08-19T00:12:54.879Z,96509.91
2022-08-19T00:13:57.513Z,96511.88
2022-08-19T00:14:59.191Z,96510.56
2022-08-19T00:16:01.586Z,96506.16
2022-08-19T00:17:04.898Z,96496.25
2022-08-19T00:18:06.525Z,96499.44
2022-08-19T00:19:08.820Z,96494.00
2022-08-19T00:20:13.471Z,96495.00
2022-08-19T00:21:15.834Z,96490.78
2022-08-19T00:22:19.082Z,96485.50
2022-08-19T00:23:20.996Z,96477.38
2022-08-19T00:24:23.661Z,96475.66
2022-08-19T00:25:30.241Z,96481.75
2022-08-19T00:26:32.412Z,96473.78
2022-08-19T00:27:34.279Z,96483.03
2022-08-19T00:28:36.795Z,96483.03
2022-08-19T00:29:38.967Z,96483.03
2022-08-19T00:30:41.933Z,96486.97
2022-08-19T00:31:44.749Z,96492.31
2022-08-19T00:32:46.424Z,96492.13
2022-08-19T00:33:50.306Z,96488.13
2022-08-19T00:34:53.696Z,96494.22
2022-08-19T00:35:56.636Z,96490.22
2022-08-19T00:37:00.591Z,96492.53
2022-08-19T00:38:02.322Z,96495.69
2022-08-19T00:39:04.023Z,96491.78
2022-08-19T00:40:08.557Z,96489.69
2022-08-19T00:41:15.496Z,96495.63
2022-08-19T00:42:17.089Z,96492.75
2022-08-19T00:43:24.099Z,96493.31
2022-08-19T00:44:29.390Z,96487.00
2022-08-19T00:45:36.789Z,96486.31
2022-08-19T00:46:41.402Z,96476.50
2022-08-19T00:47:43.011Z,96481.38
2022-08-19T00:48:44.599Z,96484.78
2022-08-19T00:49:52.344Z,96477.84
2022-08-19T00:50:55.308Z,96480.22
2022-08-19T00:52:03.046Z,96487.22
2022-08-19T00:53:08.273Z,96482.34
2022-08-19T00:54:10.206Z,96477.50
2022-08-19T00:55:19.206Z,96481.97
2022-08-19T00:56:20.919Z,96486.78
2022-08-19T00:57:28.901Z,96480.00
2022-08-19T00:58:33.618Z,96477.13
2022-08-19T00:59:56.557Z,96485.19
2022-08-19T01:01:01.651Z,96488.97
2022-08-19T01:02:04.521Z,96486.50
2022-08-19T01:03:09.851Z,96489.53
2022-08-19T01:04:11.685Z,96486.44
2022-08-19T01:05:19.470Z,96494.28
2022-08-19T01:06:21.683Z,96489.56
2022-08-19T01:07:23.921Z,96491.91
2022-08-19T01:08:25.638Z,96494.28
2022-08-19T01:09:27.272Z,96501.88
2022-08-19T01:10:36.661Z,96498.28
2022-08-19T01:11:44.892Z,96491.19
2022-08-19T01:12:48.619Z,96490.19
2022-08-19T01:13:53.112Z,96495.03
2022-08-19T01:14:55.809Z,96488.09
2022-08-19T01:16:01.725Z,96488.56
2022-08-19T01:17:03.808Z,96481.88
2022-08-19T01:18:10.541Z,96490.69
2022-08-19T01:19:20.105Z,96487.78
2022-08-19T01:20:24.783Z,96487.00
2022-08-19T01:21:33.919Z,96491.63
2022-08-19T01:22:44.430Z,96491.97
2022-08-19T01:23:46.259Z,96485.41
2022-08-19T01:24:49.703Z,96484.56
2022-08-19T01:25:55.423Z,96488.91
2022-08-19T01:26:57.619Z,96488.19
2022-08-19T01:28:09.890Z,96484.31
2022-08-19T01:29:13.247Z,96482.84
2022-08-19T01:30:22.701Z,96487.91
2022-08-19T01:31:27.852Z,96490.91
2022-08-19T01:32:33.551Z,96490.09
2022-08-19T01:33:35.745Z,96498.50
2022-08-19T01:34:37.391Z,96499.97
2022-08-19T01:35:39.200Z,96497.78
2022-08-19T01:36:46.794Z,96490.31
2022-08-19T01:37:54.623Z,96493.53
2022-08-19T01:38:56.220Z,96494.19
2022-08-19T01:39:57.905Z,96489.31
2022-08-19T01:40:59.665Z,96495.31
2022-08-19T01:42:04.262Z,96504.38
2022-08-19T01:43:06.658Z,96509.09
2022-08-19T01:44:17.626Z,96511.53
2022-08-19T01:45:23.170Z,96512.34
2022-08-19T01:46:25.198Z,96508.44
2022-08-19T01:47:26.838Z,96511.53
2022-08-19T01:48:34.975Z,96516.63
2022-08-19T01:49:37.669Z,96514.00
2022-08-19T01:50:39.723Z,96517.69
2022-08-19T01:51:41.331Z,96510.28
2022-08-19T01:52:45.004Z,96511.91
2022-08-19T01:53:49.590Z,96511.13
2022-08-19T01:54:51.186Z,96514.31
2022-08-19T01:55:52.946Z,96514.41
2022-08-19T01:57:00.364Z,96507.41
2022-08-19T01:58:05.513Z,96510.59
2022-08-19T01:59:13.659Z,96519.16
2022-08-19T02:00:18.663Z,96507.41
2022-08-19T02:01:20.645Z,96507.06
2022-08-19T02:02:22.267Z,96511.75
2022-08-19T02:03:24.228Z,96511.28
2022-08-19T02:04:26.526Z,96504.34
2022-08-19T02:05:30.160Z,96506.69
2022-08-19T02:06:31.779Z,96500.06
2022-08-19T02:07:33.935Z,96503.56
2022-08-19T02:08:37.900Z,96501.94
2022-08-19T02:09:39.515Z,96499.34
2022-08-19T02:10:43.358Z,96498.56
2022-08-19T02:11:45.313Z,96493.50
2022-08-19T02:12:47.631Z,96502.84
2022-08-19T02:13:50.397Z,96498.19
2022-08-19T02:14:52.005Z,96500.50
2022-08-19T02:15:53.857Z,96498.59
2022-08-19T02:16:55.459Z,96497.00
2022-08-19T02:17:57.034Z,96495.69
2022-08-19T02:19:01.533Z,96502.47
2022-08-19T02:20:05.161Z,96499.94
2022-08-19T02:21:07.218Z,96504.53
2022-08-19T02:22:08.822Z,96506.78
2022-08-19T02:23:13.611Z,96504.31
2022-08-19T02:24:17.639Z,96508.84
2022-08-19T02:25:19.313Z,96505.63
2022-08-19T02:26:20.963Z,96513.50
2022-08-19T02:27:23.757Z,96514.25
2022-08-19T02:28:25.410Z,96518.94
2022-08-19T02:29:27.029Z,96510.75
2022-08-19T02:30:28.762Z,96508.81
2022-08-19T02:31:30.400Z,96511.09
2022-08-19T02:32:32.061Z,96507.19
2022-08-19T02:33:33.684Z,96503.28
2022-08-19T02:34:35.735Z,96503.63
2022-08-19T02:35:37.354Z,96509.44
2022-08-19T02:36:42.391Z,96507.06
2022-08-19T02:38:03.550Z,96513.25
2022-08-19T02:39:05.202Z,96512.06
2022-08-19T02:40:12.326Z,96511.63
2022-08-19T02:41:27.315Z,96509.84
2022-08-19T02:42:28.985Z,96516.56
2022-08-19T02:43:37.370Z,96511.94
2022-08-19T02:44:40.168Z,96507.28
2022-08-19T02:45:41.974Z,96514.91
2022-08-19T02:46:45.841Z,96509.91
2022-08-19T02:47:47.792Z,96518.53
2022-08-19T02:48:51.254Z,96513.84
2022-08-19T02:49:52.852Z,96518.56
2022-08-19T02:50:56.450Z,96517.56
2022-08-19T02:51:58.143Z,96518.94
2022-08-19T02:52:59.761Z,96511.31
2022-08-19T02:54:02.064Z,96520.72
2022-08-19T02:55:04.755Z,96518.97
2022-08-19T02:56:08.808Z,96523.41
2022-08-19T02:57:10.491Z,96521.84
2022-08-19T02:58:12.159Z,96524.16
2022-08-19T02:59:13.807Z,96523.00
2022-08-19T03:00:16.563Z,96521.06
2022-08-19T03:01:26.745Z,96514.69
2022-08-19T03:02:28.492Z,96515.16
2022-08-19T03:03:30.655Z,96508.50
2022-08-19T03:04:32.276Z,96517.06
2022-08-19T03:05:48.074Z,96517.75
2022-08-19T03:06:58.511Z,96514.50
2022-08-19T03:08:06.659Z,96519.22
2022-08-19T03:09:08.579Z,96516.97
2022-08-19T03:10:10.376Z,96516.31
2022-08-19T03:11:23.530Z,96515.56
2022-08-19T03:12:25.253Z,96519.59
2022-08-19T03:13:27.255Z,96527.59
2022-08-19T03:14:32.253Z,96534.28
2022-08-19T03:15:33.879Z,96530.56
2022-08-19T03:16:45.387Z,96537.28
2022-08-19T03:17:46.995Z,96540.34
2022-08-19T03:18:49.192Z,96532.84
2022-08-19T03:19:51.203Z,96544.75
2022-08-19T03:20:55.437Z,96536.84
2022-08-19T03:21:57.190Z,96536.72
2022-08-19T03:22:58.763Z,96536.66
2022-08-19T03:24:03.368Z,96537.41
2022-08-19T03:25:05.359Z,96535.41
2022-08-19T03:26:16.808Z,96533.38
2022-08-19T03:27:18.702Z,96531.78
2022-08-19T03:28:22.090Z,96528.59
2022-08-19T03:29:30.994Z,96531.31
2022-08-19T03:30:33.407Z,96536.31
2022-08-19T03:31:44.763Z,96538.59
2022-08-19T03:32:47.448Z,96534.22
2022-08-19T03:33:54.986Z,96543.09
2022-08-19T03:34:56.800Z,96543.41
2022-08-19T03:36:24.499Z,96542.97
2022-08-19T03:37:26.995Z,96539.06
2022-08-19T03:38:29.203Z,96547.06
2022-08-19T03:39:31.144Z,96551.19
2022-08-19T03:40:33.686Z,96543.88
2022-08-19T03:41:45.499Z,96543.13
2022-08-19T03:42:49.384Z,96541.63
2022-08-19T03:43:52.664Z,96544.03
2022-08-19T03:44:54.281Z,96543.69
2022-08-19T03:46:05.152Z,96536.09
2022-08-19T03:47:07.398Z,96535.50
2022-08-19T03:48:09.537Z,96530.91
2022-08-19T03:49:11.152Z,96537.13
2022-08-19T03:50:16.649Z,96542.13
2022-08-19T03:51:34.382Z,96543.25
2022-08-19T03:52:38.627Z,96539.72
2022-08-19T03:53:40.650Z,96544.34
2022-08-19T03:54:42.991Z,96543.13
2022-08-19T03:55:45.438Z,96548.66
2022-08-19T03:56:49.174Z,96542.91
2022-08-19T03:57:50.781Z,96548.69
2022-08-19T03:58:53.563Z,96549.81
2022-08-19T03:59:55.381Z,96554.44
2022-08-19T04:01:10.009Z,96561.09
2022-08-19T04:02:13.172Z,96554.88
2022-08-19T04:03:14.782Z,96555.22
2022-08-19T04:04:16.335Z,96554.09
2022-08-19T04:05:17.996Z,96558.81
2022-08-19T04:06:22.140Z,96567.78
2022-08-19T04:07:23.778Z,96561.97
2022-08-19T04:08:25.435Z,96562.03
2022-08-19T04:09:27.979Z,96557.75
2022-08-19T04:10:29.735Z,96569.06
2022-08-19T04:11:56.787Z,96555.91
2022-08-19T04:12:58.430Z,96562.97
2022-08-19T04:14:01.305Z,96562.97
2022-08-19T04:15:07.128Z,96562.22
2022-08-19T04:16:11.171Z,96562.22
2022-08-19T04:17:15.268Z,96562.97
2022-08-19T04:18:16.834Z,96562.91
2022-08-19T04:19:19.586Z,96563.66
2022-08-19T04:20:21.204Z,96561.25
2022-08-19T04:21:25.667Z,96570.53
2022-08-19T04:22:27.275Z,96565.13
2022-08-19T04:23:31.160Z,96570.53
2022-08-19T04:24:33.553Z,96570.88
2022-08-19T04:25:40.479Z,96573.50
2022-08-19T04:26:42.308Z,96576.56
2022-08-19T04:27:47.316Z,96574.84
2022-08-19T04:28:50.139Z,96577.06
2022-08-19T04:29:51.695Z,96572.25
2022-08-19T04:30:55.562Z,96578.34
2022-08-19T04:31:59.537Z,96579.09
2022-08-19T04:33:01.177Z,96575.91
2022-08-19T04:34:05.759Z,96576.50
2022-08-19T04:35:17.947Z,96577.97
2022-08-19T04:36:23.314Z,96584.41
2022-08-19T04:37:25.731Z,96575.75
2022-08-19T04:38:27.401Z,96587.25
2022-08-19T04:39:50.170Z,96590.59
2022-08-19T04:41:11.277Z,96591.59
2022-08-19T04:42:32.162Z,96592.13
2022-08-19T04:43:35.049Z,96589.84
2022-08-19T04:44:39.899Z,96586.47
2022-08-19T04:45:48.165Z,96592.47
2022-08-19T04:46:52.114Z,96587.50
2022-08-19T04:48:19.603Z,96587.66
2022-08-19T04:49:23.836Z,96597.97
2022-08-19T04:50:28.408Z,96594.03
2022-08-19T04:51:32.208Z,96587.66
2022-08-19T04:52:33.986Z,96588.66
2022-08-19T04:53:38.227Z,96583.38
2022-08-19T04:54:40.172Z,96587.78
2022-08-19T04:55:43.447Z,96585.22
2022-08-19T04:56:45.170Z,96592.84
2022-08-19T04:57:46.922Z,96585.59
2022-08-19T04:58:49.434Z,96592.47
2022-08-19T04:59:55.601Z,96589.56
2022-08-19T05:00:57.246Z,96594.47
2022-08-19T05:01:58.841Z,96589.69
2022-08-19T05:03:00.530Z,96590.69
2022-08-19T05:04:06.903Z,96588.44
2022-08-19T05:05:09.134Z,96590.81
2022-08-19T05:06:16.591Z,96589.84
2022-08-19T05:07:18.328Z,96592.44
2022-08-19T05:08:30.860Z,96590.50
2022-08-19T05:09:57.505Z,96593.88
2022-08-19T05:10:54.934Z,96592.59
2022-08-19T05:11:56.769Z,96593.09
2022-08-19T05:12:58.674Z,96589.84
2022-08-19T05:14:01.053Z,96597.56
2022-08-19T05:15:04.841Z,96591.69
2022-08-19T05:16:07.381Z,96588.19
2022-08-19T05:17:26.467Z,96591.00
2022-08-19T05:18:47.898Z,96587.59
2022-08-19T05:20:08.429Z,96582.09
2022-08-19T05:21:31.360Z,96587.97
2022-08-19T05:22:33.517Z,96590.22
2022-08-19T05:23:35.145Z,96589.91
2022-08-19T05:24:51.201Z,96585.66
2022-08-19T05:25:59.220Z,96590.75
2022-08-19T05:27:03.566Z,96591.56
2022-08-19T05:28:05.143Z,96592.53
2022-08-19T05:29:08.507Z,96595.44
2022-08-19T05:30:12.686Z,96591.13
2022-08-19T05:31:14.332Z,96587.09
2022-08-19T05:32:15.939Z,96583.78
2022-08-19T05:33:18.958Z,96579.59
2022-08-19T05:34:23.023Z,96585.75
2022-08-19T05:35:25.071Z,96586.88
2022-08-19T05:36:28.507Z,96585.84
2022-08-19T05:37:30.166Z,96585.97
2022-08-19T05:38:31.773Z,96581.00
2022-08-19T05:39:41.549Z,96585.81
2022-08-19T05:40:48.793Z,96583.59
2022-08-19T05:41:58.088Z,96588.09
2022-08-19T05:42:59.677Z,96579.28
2022-08-19T05:44:10.323Z,96581.38
2022-08-19T05:45:12.306Z,96579.88
2022-08-19T05:46:20.099Z,96581.00
2022-08-19T05:47:30.073Z,96578.00
2022-08-19T05:48:32.419Z,96578.19
2022-08-19T05:49:35.529Z,96573.53
2022-08-19T05:50:37.645Z,96576.78
2022-08-19T05:51:39.257Z,96576.53
2022-08-19T05:52:45.861Z,96579.34
2022-08-19T05:53:52.209Z,96578.97
2022-08-19T05:54:56.176Z,96578.72
2022-08-19T05:55:58.018Z,96578.75
2022-08-19T05:57:02.086Z,96566.53
2022-08-19T05:58:03.804Z,96579.72
2022-08-19T05:59:10.203Z,96580.06
2022-08-19T06:00:12.674Z,96576.44
2022-08-19T06:01:18.179Z,96573.75
2022-08-19T06:02:19.963Z,96579.59
2022-08-19T06:03:22.033Z,96567.03
2022-08-19T06:04:24.153Z,96578.84
2022-08-19T06:05:26.490Z,96574.72
2022-08-19T06:06:32.318Z,96575.03
2022-08-19T06:08:39.520Z,96566.75
2022-08-19T06:09:43.585Z,96569.84
2022-08-19T06:10:45.917Z,96575.06
2022-08-19T06:11:56.054Z,96571.09
2022-08-19T06:12:57.926Z,96568.22
2022-08-19T06:14:04.236Z,96575.16
2022-08-19T06:15:14.413Z,96573.47
2022-08-19T06:16:23.427Z,96570.78
2022-08-19T06:17:26.980Z,96572.88
2022-08-19T06:18:28.970Z,96572.25
2022-08-19T06:19:31.924Z,96574.53
2022-08-19T06:20:54.565Z,96569.50
2022-08-19T06:21:55.262Z,96578.97
2022-08-19T06:22:56.844Z,96575.13
2022-08-19T06:24:00.061Z,96572.09
2022-08-19T06:25:02.008Z,96578.06
2022-08-19T06:26:03.634Z,96584.53
2022-08-19T06:27:06.714Z,96582.09
2022-08-19T06:28:15.803Z,96581.69
2022-08-19T06:29:23.835Z,96576.78
2022-08-19T06:30:25.920Z,96579.97
2022-08-19T06:31:29.162Z,96578.66
2022-08-19T06:32:31.241Z,96576.06
2022-08-19T06:33:32.821Z,96564.69
2022-08-19T06:34:36.090Z,96573.47
2022-08-19T06:35:42.180Z,96567.97
2022-08-19T06:36:47.594Z,96573.31
2022-08-19T06:37:49.165Z,96570.88
2022-08-19T06:38:50.772Z,96577.28
2022-08-19T06:39:52.439Z,96575.88
2022-08-19T06:41:07.696Z,96573.25
2022-08-19T06:42:12.539Z,96576.59
2022-08-19T06:43:16.947Z,96570.13
2022-08-19T06:44:21.957Z,96569.50
2022-08-19T06:45:34.438Z,96572.81
2022-08-19T06:46:38.635Z,96574.00
2022-08-19T06:47:44.858Z,96576.72
2022-08-19T06:48:47.706Z,96582.25
2022-08-19T06:49:49.297Z,96572.66
2022-08-19T06:50:52.511Z,96572.97
2022-08-19T06:51:54.475Z,96585.41
2022-08-19T06:52:56.235Z,96576.78
2022-08-19T06:54:01.290Z,96579.47
2022-08-19T06:55:06.416Z,96577.50
2022-08-19T06:56:08.222Z,96577.94
2022-08-19T06:57:14.389Z,96577.38
2022-08-19T06:58:16.348Z,96568.78
2022-08-19T06:59:21.800Z,96570.94
2022-08-19T07:00:23.496Z,96575.56
2022-08-19T07:01:25.357Z,96566.88
2022-08-19T07:02:27.670Z,96573.88
2022-08-19T07:03:34.449Z,96572.06
2022-08-19T07:04:42.079Z,96571.97
2022-08-19T07:05:45.708Z,96573.13
2022-08-19T07:06:55.010Z,96575.63
2022-08-19T07:08:01.597Z,96569.78
2022-08-19T07:09:07.585Z,96565.09
2022-08-19T07:10:09.689Z,96579.94
2022-08-19T07:11:13.907Z,96567.59
2022-08-19T07:12:16.460Z,96569.72
2022-08-19T07:13:18.172Z,96562.88
2022-08-19T07:14:24.071Z,96555.53
2022-08-19T07:15:25.671Z,96559.81
2022-08-19T07:16:29.255Z,96561.53
2022-08-19T07:17:31.456Z,96554.22
2022-08-19T07:18:37.128Z,96561.06
2022-08-19T07:19:41.043Z,96562.13
2022-08-19T07:20:43.970Z,96561.06
2022-08-19T07:21:47.614Z,96561.28
2022-08-19T07:22:49.345Z,96557.81
2022-08-19T07:23:52.778Z,96555.69
2022-08-19T07:24:54.562Z,96562.38
2022-08-19T07:25:56.215Z,96564.13
2022-08-19T07:27:03.494Z,96560.47
2022-08-19T07:28:10.145Z,96562.88
2022-08-19T07:29:28.629Z,96560.31
2022-08-19T07:30:30.859Z,96558.97
2022-08-19T07:31:37.865Z,96561.00
2022-08-19T07:32:40.994Z,96562.41
2022-08-19T07:33:44.008Z,96560.88
2022-08-19T07:34:46.438Z,96555.13
2022-08-19T07:35:48.442Z,96558.34
2022-08-19T07:36:50.803Z,96554.31
2022-08-19T07:37:54.069Z,96555.19
2022-08-19T07:38:55.985Z,96559.94
2022-08-19T07:39:57.782Z,96557.31
2022-08-19T07:40:59.907Z,96557.59
2022-08-19T07:42:05.290Z,96560.22
2022-08-19T07:43:07.357Z,96559.69
2022-08-19T07:44:10.959Z,96556.28
2022-08-19T07:45:13.046Z,96568.28
2022-08-19T07:46:14.985Z,96559.81
2022-08-19T07:47:49.397Z,96556.47
2022-08-19T07:48:43.444Z,96556.38
2022-08-19T07:49:45.020Z,96553.63
2022-08-19T07:50:46.658Z,96551.53
2022-08-19T07:51:54.628Z,96555.56
2022-08-19T07:52:56.293Z,96551.84
2022-08-19T07:53:58.203Z,96555.63
2022-08-19T07:55:01.043Z,96554.13
2022-08-19T07:56:04.847Z,96558.34
2022-08-19T07:57:06.784Z,96560.00
2022-08-19T07:58:08.883Z,96564.72
2022-08-19T07:59:10.990Z,96546.38
2022-08-19T08:00:13.127Z,96544.22
2022-08-19T08:01:19.342Z,96548.25
2022-08-19T08:02:20.942Z,96547.84
2022-08-19T08:03:46.338Z,96542.25
2022-08-19T08:05:06.154Z,96541.72
2022-08-19T08:06:26.704Z,96541.28
2022-08-19T08:07:48.431Z,96543.06
2022-08-19T08:09:08.902Z,96537.09
2022-08-19T08:10:20.651Z,96536.53
2022-08-19T08:11:24.047Z,96539.16
2022-08-19T08:12:34.626Z,96547.84
2022-08-19T08:13:36.688Z,96531.59
2022-08-19T08:14:55.936Z,96534.13
2022-08-19T08:15:58.325Z,96532.28
2022-08-19T08:17:00.537Z,96539.66
2022-08-19T08:18:02.499Z,96531.59
2022-08-19T08:19:18.227Z,96527.31
2022-08-19T08:20:27.170Z,96525.91
2022-08-19T08:21:28.929Z,96522.63
2022-08-19T08:22:48.854Z,96524.31
2022-08-19T08:23:53.191Z,96522.69
2022-08-19T08:24:56.696Z,96518.22
2022-08-19T08:25:59.188Z,96522.84
2022-08-19T08:27:02.032Z,96517.63
2022-08-19T08:28:05.074Z,96517.53
2022-08-19T08:29:12.381Z,96518.63
2022-08-19T08:30:23.179Z,96512.34
2022-08-19T08:31:25.147Z,96519.19
2022-08-19T08:32:27.047Z,96516.31
2022-08-19T08:33:33.651Z,96513.38
2022-08-19T08:34:38.051Z,96518.34
2022-08-19T08:35:43.238Z,96515.97
2022-08-19T08:36:46.946Z,96513.78
2022-08-19T08:37:53.647Z,96509.00
2022-08-19T08:40:02.673Z,96501.59
2022-08-19T08:41:28.853Z,96502.84
2022-08-19T08:42:37.476Z,96506.41
2022-08-19T08:43:44.462Z,96505.97
2022-08-19T08:45:17.599Z,96505.84
2022-08-19T08:46:46.461Z,96494.72
2022-08-19T08:47:53.199Z,96500.91
2022-08-19T08:49:21.446Z,96499.91
2022-08-19T08:50:30.862Z,96498.97
2022-08-19T08:51:59.982Z,96493.97
2022-08-19T08:53:03.307Z,96497.03
2022-08-19T08:54:07.724Z,96494.59
2022-08-19T08:55:20.380Z,96495.59
2022-08-19T08:56:23.487Z,96486.03
2022-08-19T08:57:37.008Z,96498.22
2022-08-19T08:59:08.201Z,96492.19
2022-08-19T09:00:18.177Z,96490.16
2022-08-19T09:01:20.844Z,96490.13
2022-08-19T09:02:22.704Z,96490.91
2022-08-19T09:03:31.638Z,96486.34
2022-08-19T09:04:35.876Z,96482.00
2022-08-19T09:05:50.028Z,96488.00
2022-08-19T09:07:35.990Z,96479.91
2022-08-19T09:08:51.458Z,96478.88
2022-08-19T09:10:43.987Z,96475.91
2022-08-19T09:12:11.672Z,96469.41
2022-08-19T09:13:25.367Z,96478.47
2022-08-19T09:14:54.989Z,96477.19
2022-08-19T09:16:06.227Z,96474.13
2022-08-19T09:17:10.242Z,96468.28
2022-08-19T09:18:15.407Z,96466.19
2022-08-19T09:19:22.234Z,96472.03
2022-08-19T09:20:26.296Z,96468.25
2022-08-19T09:21:33.047Z,96468.84
2022-08-19T09:22:37.249Z,96466.25
2022-08-19T09:23:39.557Z,96460.16
2022-08-19T09:24:41.909Z,96463.66
2022-08-19T09:25:44.617Z,96455.50
2022-08-19T09:26:48.668Z,96466.06
2022-08-19T09:28:02.267Z,96456.75
2022-08-19T09:29:06.847Z,96464.16
2022-08-19T09:30:11.025Z,96455.56
2022-08-19T09:31:15.153Z,96466.06
2022-08-19T09:32:26.152Z,96452.34
2022-08-19T09:33:28.129Z,96452.75
2022-08-19T09:34:38.038Z,96451.13
2022-08-19T09:35:50.004Z,96443.09
2022-08-19T09:36:56.486Z,96439.94
2022-08-19T09:37:59.941Z,96443.09
2022-08-19T09:39:02.965Z,96440.63
2022-08-19T09:40:05.419Z,96432.53
2022-08-19T09:41:15.962Z,96434.81
2022-08-19T09:42:30.566Z,96431.06
2022-08-19T09:43:44.218Z,96434.66
2022-08-19T09:44:46.997Z,96433.59
2022-08-19T09:45:48.933Z,96428.50
2022-08-19T09:46:51.933Z,96419.94
2022-08-19T09:47:55.300Z,96427.03
2022-08-19T09:49:03.005Z,96425.47
2022-08-19T09:50:10.095Z,96435.56
2022-08-19T09:51:17.264Z,96428.03
2022-08-19T09:52:19.146Z,96424.75
2022-08-19T09:53:23.439Z,96418.16
2022-08-19T09:54:27.616Z,96417.97
2022-08-19T09:55:31.719Z,96418.53
2022-08-19T09:56:34.436Z,96416.31
2022-08-19T09:57:36.561Z,96417.06
2022-08-19T09:58:39.041Z,96411.34
2022-08-19T09:59:41.135Z,96406.28
2022-08-19T10:00:42.790Z,96410.34
2022-08-19T10:01:44.452Z,96408.06
2022-08-19T10:02:47.641Z,96403.72
2022-08-19T10:03:58.534Z,96401.22
2022-08-19T10:05:23.173Z,96397.94
2022-08-19T10:06:43.973Z,96398.91
2022-08-19T10:07:48.842Z,96393.56
2022-08-19T10:08:51.427Z,96397.19
2022-08-19T10:09:53.132Z,96390.63
2022-08-19T10:10:55.981Z,96394.97
2022-08-19T10:11:57.647Z,96393.97
2022-08-19T10:12:59.230Z,96392.97
2022-08-19T10:14:05.720Z,96388.16
2022-08-19T10:15:07.794Z,96392.03
2022-08-19T10:16:20.879Z,96384.44
2022-08-19T10:17:26.427Z,96390.78
2022-08-19T10:18:29.111Z,96390.72
2022-08-19T10:19:36.814Z,96381.56
2022-08-19T10:20:38.420Z,96379.81
2022-08-19T10:21:41.218Z,96384.34
2022-08-19T10:22:44.337Z,96381.28
2022-08-19T10:23:48.398Z,96376.72
2022-08-19T10:24:50.665Z,96379.22
2022-08-19T10:25:54.631Z,96382.78
2022-08-19T10:26:59.673Z,96377.22
2022-08-19T10:28:01.952Z,96378.75
2022-08-19T10:29:05.965Z,96367.13
2022-08-19T10:30:11.653Z,96369.66
2022-08-19T10:31:20.837Z,96372.94
2022-08-19T10:32:46.325Z,96367.66
2022-08-19T10:33:54.167Z,96373.03
2022-08-19T10:34:57.416Z,96364.66
2022-08-19T10:36:07.237Z,96365.16
2022-08-19T10:37:10.820Z,96363.91
2022-08-19T10:38:15.913Z,96355.81
2022-08-19T10:39:17.577Z,96359.38
2022-08-19T10:40:25.159Z,96356.78
2022-08-19T10:41:31.812Z,96359.09
2022-08-19T10:42:33.454Z,96355.28
2022-08-19T10:43:38.992Z,96359.34
2022-08-19T10:44:41.435Z,96348.44
2022-08-19T10:45:52.457Z,96354.03
2022-08-19T10:46:54.441Z,96349.47
2022-08-19T10:47:58.385Z,96351.00
2022-08-19T10:49:02.421Z,96348.44
2022-08-19T10:50:22.868Z,96341.34
2022-08-19T10:51:49.899Z,96346.13
2022-08-19T10:52:51.798Z,96351.69
2022-08-19T10:53:57.779Z,96348.94
2022-08-19T10:55:17.938Z,96335.53
2022-08-19T10:56:37.998Z,96344.91
2022-08-19T10:58:04.114Z,96341.34
2022-08-19T10:59:02.150Z,96323.88
2022-08-19T11:00:05.342Z,96332.50
2022-08-19T11:01:06.974Z,96317.56
2022-08-19T11:02:11.299Z,96331.50
2022-08-19T11:03:13.193Z,96328.97
2022-08-19T11:04:18.442Z,96325.41
2022-08-19T11:05:20.469Z,96334.28
2022-08-19T11:06:28.912Z,96323.88
2022-08-19T11:07:30.530Z,96323.13
2022-08-19T11:08:33.536Z,96321.09
2022-08-19T11:09:41.029Z,96322.63
2022-08-19T11:10:43.709Z,96321.63
2022-08-19T11:11:53.750Z,96321.09
2022-08-19T11:12:56.148Z,96318.84
2022-08-19T11:13:58.958Z,96310.47
2022-08-19T11:15:00.629Z,96305.41
2022-08-19T11:16:12.283Z,96309.19
2022-08-19T11:17:15.073Z,96310.72
2022-08-19T11:18:17.953Z,96309.94
2022-08-19T11:19:20.235Z,96318.09
2022-08-19T11:20:21.947Z,96313.78
2022-08-19T11:21:28.468Z,96301.09
2022-08-19T11:22:35.356Z,96304.63
2022-08-19T11:23:42.674Z,96310.97
2022-08-19T11:24:44.303Z,96307.94
2022-08-19T11:25:46.558Z,96306.66
2022-08-19T11:26:50.778Z,96298.81
2022-08-19T11:27:53.367Z,96297.53
2022-08-19T11:28:56.517Z,96288.41
2022-08-19T11:29:58.148Z,96297.53
2022-08-19T11:30:59.727Z,96298.31
2022-08-19T11:32:05.685Z,96295.25
2022-08-19T11:33:07.333Z,96290.69
2022-08-19T11:34:12.949Z,96289.69
2022-08-19T11:35:14.707Z,96288.16
2022-08-19T11:36:17.258Z,96290.94
2022-08-19T11:37:18.922Z,96288.16
2022-08-19T11:38:20.802Z,96274.50
2022-08-19T11:39:23.601Z,96277.75
2022-08-19T11:40:25.420Z,96284.34
2022-08-19T11:41:27.876Z,96277.00
2022-08-19T11:42:48.039Z,96276.25
2022-08-19T11:43:50.428Z,96270.91
2022-08-19T11:44:52.221Z,96268.34
2022-08-19T11:45:57.167Z,96265.25
2022-08-19T11:46:58.808Z,96259.94
2022-08-19T11:48:11.232Z,96263.19
2022-08-19T11:49:14.379Z,96261.44
2022-08-19T11:50:17.233Z,96265.00
2022-08-19T11:51:25.525Z,96261.19
2022-08-19T11:52:27.539Z,96260.97
2022-08-19T11:53:31.189Z,96260.72
2022-08-19T11:54:33.114Z,96253.59
2022-08-19T11:55:44.132Z,96255.88
2022-08-19T11:56:47.182Z,96252.03
2022-08-19T11:57:48.955Z,96258.38
2022-08-19T11:58:50.832Z,96247.00
2022-08-19T11:59:53.730Z,96244.72
2022-08-19T12:00:55.341Z,96255.63
2022-08-19T12:01:58.114Z,96257.63
2022-08-19T12:02:59.720Z,96253.09
2022-08-19T12:04:01.849Z,96246.25
2022-08-19T12:05:05.492Z,96237.38
2022-08-19T12:06:16.997Z,96242.47
2022-08-19T12:07:19.279Z,96236.66
2022-08-19T12:08:20.973Z,96234.84
2022-08-19T12:09:23.193Z,96233.59
2022-08-19T12:10:26.512Z,96233.81
2022-08-19T12:11:28.480Z,96218.63
2022-08-19T12:12:32.884Z,96228.75
2022-08-19T12:13:35.187Z,96225.16
2022-08-19T12:14:37.014Z,96221.03
2022-08-19T12:15:41.686Z,96215.94
2022-08-19T12:16:51.081Z,96223.59
2022-08-19T12:17:56.255Z,96219.50
2022-08-19T12:18:58.953Z,96220.03
2022-08-19T12:20:01.276Z,96214.69
2022-08-19T12:21:02.986Z,96221.03
2022-08-19T12:22:06.391Z,96216.97
2022-08-19T12:23:10.444Z,96221.50
2022-08-19T12:24:12.344Z,96216.44
2022-08-19T12:25:13.991Z,96210.34
2022-08-19T12:26:15.601Z,96208.84
2022-08-19T12:27:20.336Z,96213.66
2022-08-19T12:28:34.011Z,96211.66
2022-08-19T12:29:37.821Z,96201.97
2022-08-19T12:30:39.453Z,96209.31
2022-08-19T12:31:41.037Z,96205.28
2022-08-19T12:32:44.745Z,96208.84
2022-08-19T12:33:46.748Z,96205.56
2022-08-19T12:34:48.393Z,96210.34
2022-08-19T12:39:26.760Z,96207.28
2022-08-19T12:40:36.305Z,96212.84
2022-08-19T12:41:54.053Z,96204.69
2022-08-19T12:42:56.735Z,96192.22
2022-08-19T12:43:59.226Z,96200.81
2022-08-19T12:45:00.859Z,96201.56
2022-08-19T12:46:05.203Z,96192.94
2022-08-19T12:47:07.903Z,96197.75
2022-08-19T12:48:32.932Z,96187.47
2022-08-19T12:49:54.253Z,96197.03
2022-08-19T12:50:56.780Z,96199.31
2022-08-19T12:51:59.212Z,96188.69
2022-08-19T12:53:00.827Z,96185.16
2022-08-19T12:54:02.812Z,96193.56